createdAt,value
2022-09-27T00:01:10.187Z,32.83
2022-09-27T00:03:42.624Z,37.42
2022-09-27T00:06:14.476Z,35.67
2022-09-27T00:11:16.180Z,38.97
2022-09-27T00:13:43.341Z,34.80
2022-09-27T00:16:11.164Z,40.20
2022-09-27T00:18:38.118Z,40.28
2022-09-27T00:21:12.222Z,42.75
2022-09-27T00:23:40.209Z,43.17
2022-09-27T00:26:09.071Z,35.67
2022-09-27T00:28:35.997Z,38.50
2022-09-27T00:31:03.854Z,43.42
2022-09-27T00:33:31.088Z,39.67
2022-09-27T00:36:05.837Z,34.55
2022-09-27T00:38:33.282Z,39.95
2022-09-27T00:41:00.299Z,42.85
2022-09-27T00:44:08.186Z,37.90
2022-09-27T00:46:41.827Z,39.05
2022-09-27T00:49:22.646Z,40.20
2022-09-27T00:51:56.672Z,38.93
2022-09-27T00:54:26.668Z,38.90
2022-09-27T00:56:54.128Z,36.83
2022-09-27T00:59:37.444Z,35.95
2022-09-27T01:02:06.861Z,36.10
2022-09-27T01:04:36.980Z,37.10
2022-09-27T01:07:03.966Z,35.70
2022-09-27T01:09:31.700Z,43.53
2022-09-27T01:12:36.375Z,43.05
2022-09-27T01:15:40.482Z,40.38
2022-09-27T01:18:13.728Z,43.75
2022-09-27T01:21:12.112Z,45.33
2022-09-27T01:24:12.450Z,43.33
2022-09-27T01:27:01.623Z,47.40
2022-09-27T01:29:57.054Z,48.83
2022-09-27T01:32:36.687Z,49.13
2022-09-27T01:35:23.425Z,52.03
2022-09-27T01:38:10.294Z,49.60
2022-09-27T01:40:58.194Z,51.28
2022-09-27T01:44:13.093Z,50.20
2022-09-27T01:46:57.071Z,57.05
2022-09-27T01:49:55.951Z,55.40
2022-09-27T01:52:31.417Z,55.10
2022-09-27T01:55:04.606Z,51.65
2022-09-27T01:57:57.923Z,50.47
2022-09-27T02:00:26.973Z,51.92
2022-09-27T02:03:02.130Z,50.33
2022-09-27T02:05:43.181Z,48.80
2022-09-27T02:08:42.151Z,48.85
2022-09-27T02:11:22.173Z,45.30
2022-09-27T02:14:06.516Z,50.20
2022-09-27T02:17:11.597Z,46.88
2022-09-27T02:19:52.455Z,46.45
2022-09-27T02:22:38.669Z,50.00
2022-09-27T02:25:06.564Z,45.45
2022-09-27T02:28:03.904Z,46.17
2022-09-27T02:30:34.973Z,44.92
2022-09-27T02:33:15.844Z,43.17
2022-09-27T02:35:43.242Z,46.03
2022-09-27T02:38:10.885Z,42.92
2022-09-27T02:40:44.935Z,46.00
2022-09-27T02:43:15.019Z,40.65
2022-09-27T02:46:01.628Z,41.42
2022-09-27T02:48:52.316Z,46.97
2022-09-27T02:51:35.979Z,43.58
2022-09-27T02:54:08.904Z,44.55
2022-09-27T02:57:22.437Z,42.05
2022-09-27T03:00:18.307Z,42.95
2022-09-27T03:03:08.474Z,42.50
2022-09-27T03:05:49.280Z,40.20
2022-09-27T03:08:18.602Z,44.58
2022-09-27T03:10:45.884Z,46.63
2022-09-27T03:13:14.257Z,45.38
2022-09-27T03:15:42.436Z,46.80
2022-09-27T03:18:18.586Z,47.13
2022-09-27T03:20:46.569Z,47.42
2022-09-27T03:23:21.060Z,46.78
2022-09-27T03:25:50.035Z,49.40
2022-09-27T03:28:17.903Z,43.75
2022-09-27T03:30:46.973Z,44.22
2022-09-27T03:33:28.149Z,46.53
2022-09-27T03:36:00.301Z,46.72
2022-09-27T03:38:27.381Z,44.55
2022-09-27T03:40:54.566Z,49.28
2022-09-27T03:43:21.486Z,47.58
2022-09-27T03:45:48.783Z,50.67
2022-09-27T03:48:17.588Z,51.40
2022-09-27T03:50:44.453Z,51.20
2022-09-27T03:53:11.316Z,44.08
2022-09-27T03:55:38.555Z,49.95
2022-09-27T03:58:06.418Z,52.30
2022-09-27T04:00:39.219Z,48.53
2022-09-27T04:03:06.781Z,47.90
2022-09-27T04:05:40.145Z,48.28
2022-09-27T04:08:12.086Z,47.33
2022-09-27T04:10:39.021Z,48.25
2022-09-27T04:13:06.299Z,49.25
2022-09-27T04:15:44.453Z,49.58
2022-09-27T04:18:31.485Z,53.45
2022-09-27T04:21:35.393Z,48.42
2022-09-27T04:24:02.693Z,48.42
2022-09-27T04:26:29.829Z,46.97
2022-09-27T04:29:04.003Z,53.15
2022-09-27T04:34:11.155Z,50.83
2022-09-27T04:36:40.367Z,61.00
2022-09-27T04:39:10.447Z,58.53
2022-09-27T04:41:41.425Z,59.88
2022-09-27T04:44:08.305Z,57.30
2022-09-27T04:46:35.424Z,52.65
2022-09-27T04:49:03.514Z,57.75
2022-09-27T04:51:32.847Z,56.10
2022-09-27T04:54:00.718Z,59.80
2022-09-27T04:56:30.771Z,58.40
2022-09-27T04:58:58.827Z,58.28
2022-09-27T05:01:25.821Z,56.25
2022-09-27T05:04:13.065Z,58.03
2022-09-27T05:06:43.603Z,61.67
2022-09-27T05:09:19.868Z,57.97
2022-09-27T05:11:49.823Z,60.72
2022-09-27T05:14:17.137Z,56.22
2022-09-27T05:16:55.483Z,55.53
2022-09-27T05:19:42.080Z,54.95
2022-09-27T05:22:19.330Z,59.60
2022-09-27T05:24:47.312Z,57.35
2022-09-27T05:27:18.549Z,57.95
2022-09-27T05:29:47.134Z,59.90
2022-09-27T05:32:19.656Z,57.92
2022-09-27T05:34:54.295Z,59.80
2022-09-27T05:37:21.587Z,57.30
2022-09-27T05:39:50.030Z,59.53
2022-09-27T05:42:19.084Z,62.70
2022-09-27T05:44:47.669Z,62.65
2022-09-27T05:47:16.008Z,59.65
2022-09-27T05:49:43.292Z,60.40
2022-09-27T05:52:15.155Z,61.13
2022-09-27T05:54:44.066Z,58.28
2022-09-27T05:57:11.155Z,56.45
2022-09-27T05:59:43.980Z,55.53
2022-09-27T06:02:37.302Z,56.72
2022-09-27T06:05:24.265Z,51.50
2022-09-27T06:08:34.677Z,47.17
2022-09-27T06:11:06.924Z,41.85
2022-09-27T06:13:36.409Z,50.40
2022-09-27T06:16:04.341Z,51.20
2022-09-27T06:18:32.680Z,45.08
2022-09-27T06:21:01.545Z,45.28
2022-09-27T06:23:29.348Z,43.30
2022-09-27T06:26:01.869Z,44.28
2022-09-27T06:28:41.118Z,47.08
2022-09-27T06:31:09.587Z,47.70
2022-09-27T06:33:47.823Z,41.47
2022-09-27T06:38:42.338Z,37.28
2022-09-27T06:41:20.078Z,36.50
2022-09-27T06:44:05.602Z,39.95
2022-09-27T06:46:32.990Z,44.85
2022-09-27T06:49:12.080Z,43.47
2022-09-27T06:51:40.792Z,43.63
2022-09-27T06:54:07.820Z,37.20
2022-09-27T06:56:35.071Z,37.95
2022-09-27T06:59:20.654Z,36.63
2022-09-27T07:01:52.703Z,39.17
2022-09-27T07:04:29.107Z,34.40
2022-09-27T07:07:02.296Z,41.95
2022-09-27T07:09:33.371Z,39.03
2022-09-27T07:12:00.952Z,39.28
2022-09-27T07:14:27.986Z,45.63
2022-09-27T07:16:55.947Z,43.05
2022-09-27T07:19:24.298Z,40.63
2022-09-27T07:21:52.595Z,46.72
2022-09-27T07:24:20.234Z,46.78
2022-09-27T07:26:48.193Z,43.22
2022-09-27T07:29:17.259Z,52.30
2022-09-27T07:31:44.665Z,51.20
2022-09-27T07:34:12.442Z,44.30
2022-09-27T07:36:40.104Z,43.47
2022-09-27T07:39:09.937Z,46.08
2022-09-27T07:41:36.786Z,43.97
2022-09-27T07:44:05.068Z,38.30
2022-09-27T07:46:34.931Z,42.30
2022-09-27T07:49:17.731Z,39.10
2022-09-27T07:52:01.276Z,35.10
2022-09-27T07:55:07.343Z,38.00
2022-09-27T07:57:51.087Z,40.90
2022-09-27T08:00:21.957Z,40.78
2022-09-27T08:02:49.056Z,35.80
2022-09-27T08:05:16.084Z,39.92
2022-09-27T08:07:43.392Z,36.17
2022-09-27T08:10:11.577Z,45.08
2022-09-27T08:12:38.965Z,40.75
2022-09-27T08:15:06.279Z,33.55
2022-09-27T08:17:33.572Z,42.30
2022-09-27T08:20:27.769Z,41.97
2022-09-27T08:23:19.015Z,43.45
2022-09-27T08:25:54.767Z,42.40
2022-09-27T08:28:33.869Z,38.22
2022-09-27T08:33:35.809Z,43.33
2022-09-27T08:36:13.032Z,36.53
2022-09-27T08:38:41.134Z,34.83
2022-09-27T08:41:40.687Z,35.08
2022-09-27T08:44:35.156Z,33.00
2022-09-27T08:47:23.247Z,36.85
2022-09-27T08:49:56.893Z,38.13
2022-09-27T08:52:30.415Z,34.53
2022-09-27T08:55:03.568Z,34.10
2022-09-27T08:57:31.322Z,36.72
2022-09-27T09:00:07.247Z,34.25
2022-09-27T09:02:36.372Z,37.50
2022-09-27T09:05:13.313Z,33.45
2022-09-27T09:07:43.542Z,35.72
2022-09-27T09:11:07.304Z,36.95
2022-09-27T09:13:51.748Z,32.78
2022-09-27T09:16:32.738Z,34.25
2022-09-27T09:19:37.447Z,38.83
2022-09-27T09:23:00.382Z,33.33
2022-09-27T09:25:55.038Z,33.72
2022-09-27T09:28:39.852Z,32.80
2022-09-27T09:31:25.362Z,33.78
2022-09-27T09:33:56.963Z,30.98
2022-09-27T09:36:31.175Z,35.25
2022-09-27T09:39:39.080Z,37.45
2022-09-27T09:42:24.469Z,31.50
2022-09-27T09:44:55.609Z,32.90
2022-09-27T09:47:42.456Z,29.58
2022-09-27T09:50:56.250Z,34.95
2022-09-27T09:53:40.023Z,31.25
2022-09-27T09:56:15.672Z,28.77
2022-09-27T09:58:56.015Z,31.63
2022-09-27T10:01:40.540Z,29.30
2022-09-27T10:04:18.342Z,30.58
2022-09-27T10:06:45.523Z,30.27
2022-09-27T10:09:15.934Z,28.17
2022-09-27T10:11:49.791Z,27.63
2022-09-27T10:14:38.545Z,30.08
2022-09-27T10:17:14.639Z,25.40
2022-09-27T10:19:42.951Z,23.77
2022-09-27T10:22:18.802Z,27.30
2022-09-27T10:25:04.428Z,27.85
2022-09-27T10:27:47.333Z,29.85
2022-09-27T10:30:33.609Z,31.85
2022-09-27T10:33:16.281Z,30.90
2022-09-27T10:38:35.784Z,31.77
2022-09-27T10:41:38.286Z,35.80
2022-09-27T10:44:15.683Z,32.85
2022-09-27T10:46:50.555Z,34.53
2022-09-27T10:50:04.042Z,32.65
2022-09-27T10:52:44.190Z,33.75
2022-09-27T10:55:26.135Z,29.25
2022-09-27T10:57:56.213Z,33.83
2022-09-27T11:00:30.022Z,32.83
2022-09-27T11:03:01.656Z,32.60
2022-09-27T11:05:35.579Z,38.47
2022-09-27T11:08:19.679Z,35.75
2022-09-27T11:11:04.157Z,29.67
2022-09-27T11:13:33.813Z,32.30
2022-09-27T11:16:04.904Z,27.77
2022-09-27T11:19:14.572Z,31.45
2022-09-27T11:22:08.473Z,32.67
2022-09-27T11:25:06.393Z,33.47
2022-09-27T11:28:02.606Z,28.95
2022-09-27T11:30:51.553Z,31.77
2022-09-27T11:34:12.162Z,30.83
2022-09-27T11:36:57.572Z,31.42
2022-09-27T11:40:00.272Z,33.13
2022-09-27T11:42:45.146Z,31.23
2022-09-27T11:45:41.155Z,30.85
2022-09-27T11:48:32.738Z,28.60
2022-09-27T11:51:14.870Z,29.45
2022-09-27T11:53:44.575Z,27.55
2022-09-27T11:56:44.142Z,31.48
2022-09-27T11:59:32.895Z,26.65
2022-09-27T12:02:13.677Z,31.98
2022-09-27T12:05:00.706Z,33.80
2022-09-27T12:07:53.134Z,38.10
2022-09-27T12:10:21.802Z,28.02
2022-09-27T12:12:53.943Z,25.92
2022-09-27T12:17:56.560Z,25.50
2022-09-27T12:20:35.195Z,21.60
2022-09-27T12:23:20.344Z,23.80
2022-09-27T12:26:06.454Z,24.70
2022-09-27T12:28:42.885Z,24.45
2022-09-27T12:31:30.473Z,21.48
2022-09-27T12:34:06.695Z,22.55
2022-09-27T12:36:38.824Z,22.42
2022-09-27T12:39:22.433Z,22.38
2022-09-27T12:42:06.156Z,19.10
2022-09-27T12:44:46.037Z,19.15
2022-09-27T12:47:58.742Z,20.08
2022-09-27T12:50:35.223Z,18.98
2022-09-27T12:53:12.198Z,18.20
2022-09-27T12:56:10.858Z,17.88
2022-09-27T12:58:59.213Z,16.92
2022-09-27T13:01:53.927Z,16.45
2022-09-27T13:04:23.986Z,16.67
2022-09-27T13:07:17.731Z,14.80
2022-09-27T13:10:15.044Z,17.48
2022-09-27T13:12:50.201Z,15.85
2022-09-27T13:15:21.849Z,14.90
2022-09-27T13:17:50.985Z,14.43
2022-09-27T13:20:36.332Z,15.20
2022-09-27T13:23:19.770Z,13.32
2022-09-27T13:26:03.582Z,14.18
2022-09-27T13:28:47.517Z,13.73
2022-09-27T13:31:56.214Z,16.40
2022-09-27T13:34:39.563Z,16.05
2022-09-27T13:37:26.125Z,13.77
2022-09-27T13:40:15.268Z,11.02
2022-09-27T13:43:13.373Z,13.85
2022-09-27T13:46:08.612Z,13.15
2022-09-27T13:48:45.871Z,12.13
2022-09-27T13:51:39.930Z,11.40
2022-09-27T13:54:45.542Z,15.68
2022-09-27T13:57:34.671Z,14.02
2022-09-27T14:00:06.303Z,18.42
2022-09-27T14:05:41.529Z,12.40
2022-09-27T14:08:25.035Z,13.70
2022-09-27T14:10:54.271Z,14.93
2022-09-27T14:13:24.439Z,15.90
2022-09-27T14:16:05.033Z,10.68
2022-09-27T14:18:37.641Z,10.90
2022-09-27T14:21:36.253Z,12.13
2022-09-27T14:24:28.635Z,14.85
2022-09-27T14:27:21.644Z,13.48
2022-09-27T14:29:58.278Z,18.63
2022-09-27T14:32:34.143Z,14.38
2022-09-27T14:35:37.760Z,16.13
2022-09-27T14:38:33.087Z,17.08
2022-09-27T14:41:03.612Z,17.08
2022-09-27T14:43:33.054Z,14.52
2022-09-27T14:46:02.778Z,17.08
2022-09-27T14:48:36.810Z,15.40
2022-09-27T14:51:19.408Z,16.88
2022-09-27T14:53:49.895Z,15.50
2022-09-27T14:56:22.669Z,17.10
2022-09-27T14:58:56.772Z,13.98
2022-09-27T15:01:24.466Z,14.27
2022-09-27T15:03:53.684Z,14.85
2022-09-27T15:06:21.469Z,15.77
2022-09-27T15:08:51.521Z,14.10
2022-09-27T15:11:19.546Z,15.95
2022-09-27T15:13:51.802Z,14.27
2022-09-27T15:16:22.783Z,14.48
2022-09-27T15:19:17.463Z,14.45
2022-09-27T15:21:45.784Z,16.02
2022-09-27T15:24:39.953Z,15.77
2022-09-27T15:27:22.781Z,17.15
2022-09-27T15:29:55.860Z,17.70
2022-09-27T15:32:25.290Z,16.95
2022-09-27T15:34:53.731Z,16.90
2022-09-27T15:37:47.205Z,17.00
2022-09-27T15:40:21.119Z,21.80
2022-09-27T15:42:59.620Z,16.92
2022-09-27T15:45:36.183Z,19.42
2022-09-27T15:48:21.854Z,16.73
2022-09-27T15:50:50.145Z,16.17
2022-09-27T15:53:35.322Z,15.65
2022-09-27T15:56:06.788Z,16.95
2022-09-27T15:58:35.098Z,18.05
2022-09-27T16:01:04.121Z,17.05
2022-09-27T16:03:32.193Z,15.85
2022-09-27T16:06:02.171Z,15.20
2022-09-27T16:08:29.435Z,16.95
2022-09-27T16:11:00.782Z,18.02
2022-09-27T16:13:32.718Z,16.35
2022-09-27T16:16:02.377Z,20.55
2022-09-27T16:18:30.757Z,17.05
2022-09-27T16:20:59.191Z,15.85
2022-09-27T16:23:26.447Z,15.57
2022-09-27T16:25:53.707Z,16.52
2022-09-27T16:28:20.699Z,19.30
2022-09-27T16:30:48.334Z,13.95
2022-09-27T16:33:15.547Z,19.85
2022-09-27T16:35:43.029Z,17.90
2022-09-27T16:38:10.289Z,18.50
2022-09-27T16:40:37.978Z,16.45
2022-09-27T16:43:07.655Z,17.05
2022-09-27T16:45:36.588Z,15.50
2022-09-27T16:48:03.987Z,18.05
2022-09-27T16:50:49.437Z,17.30
2022-09-27T16:53:16.772Z,14.63
2022-09-27T16:55:43.900Z,20.08
2022-09-27T16:58:10.820Z,15.32
2022-09-27T17:00:38.652Z,18.77
2022-09-27T17:03:06.863Z,19.08
2022-09-27T17:05:33.701Z,14.93
2022-09-27T17:08:01.483Z,17.70
2022-09-27T17:10:28.811Z,14.23
2022-09-27T17:12:57.867Z,17.42
2022-09-27T17:15:25.373Z,15.77
2022-09-27T17:17:52.468Z,17.92
2022-09-27T17:20:19.589Z,16.25
2022-09-27T17:22:47.942Z,20.45
2022-09-27T17:25:15.314Z,15.10
2022-09-27T17:27:42.488Z,17.33
2022-09-27T17:30:10.390Z,17.23
2022-09-27T17:32:38.713Z,14.98
2022-09-27T17:35:06.784Z,16.98
2022-09-27T17:37:34.179Z,15.70
2022-09-27T17:40:01.969Z,21.20
2022-09-27T17:42:28.991Z,19.80
2022-09-27T17:44:55.980Z,17.75
2022-09-27T17:47:41.871Z,18.77
2022-09-27T17:50:25.913Z,19.17
2022-09-27T17:52:56.699Z,20.67
2022-09-27T17:55:24.981Z,20.48
2022-09-27T17:57:52.412Z,20.02
2022-09-27T18:00:20.617Z,21.50
2022-09-27T18:02:48.239Z,20.52
2022-09-27T18:05:15.827Z,19.48
2022-09-27T18:07:43.224Z,25.15
2022-09-27T18:10:10.584Z,23.50
2022-09-27T18:12:38.628Z,21.42
2022-09-27T18:15:06.619Z,23.17
2022-09-27T18:17:33.801Z,21.25
2022-09-27T18:20:02.478Z,21.77
2022-09-27T18:22:31.273Z,23.70
2022-09-27T18:24:58.799Z,24.83
2022-09-27T18:27:26.207Z,24.13
2022-09-27T18:29:54.314Z,26.58
2022-09-27T18:32:21.446Z,24.30
2022-09-27T18:34:48.592Z,26.42
2022-09-27T18:37:16.003Z,26.23
2022-09-27T18:39:43.077Z,28.77
2022-09-27T18:42:10.308Z,28.95
2022-09-27T18:44:37.651Z,31.60
2022-09-27T18:47:04.675Z,30.02
2022-09-27T18:49:34.201Z,25.27
2022-09-27T18:52:02.900Z,29.00
2022-09-27T18:54:30.300Z,29.25
2022-09-27T18:56:59.130Z,29.67
2022-09-27T18:59:26.512Z,26.10
2022-09-27T19:01:53.588Z,27.02
2022-09-27T19:04:25.886Z,27.88
2022-09-27T19:06:55.863Z,28.58
2022-09-27T19:09:23.543Z,28.90
2022-09-27T19:11:51.220Z,28.85
2022-09-27T19:14:21.356Z,28.13
2022-09-27T19:16:49.602Z,26.38
2022-09-27T19:19:17.823Z,27.65
2022-09-27T19:21:45.388Z,27.30
2022-09-27T19:24:14.170Z,28.90
2022-09-27T19:26:41.689Z,26.75
2022-09-27T19:29:08.860Z,24.13
2022-09-27T19:31:36.112Z,24.30
2022-09-27T19:34:03.304Z,22.83
2022-09-27T19:36:30.741Z,26.02
2022-09-27T19:39:00.417Z,24.88
2022-09-27T19:41:27.664Z,21.50
2022-09-27T19:43:56.326Z,23.35
2022-09-27T19:46:24.826Z,24.77
2022-09-27T19:48:52.418Z,24.27
2022-09-27T19:51:22.627Z,27.08
2022-09-27T19:53:50.594Z,25.00
2022-09-27T19:56:18.498Z,23.35
2022-09-27T19:58:46.050Z,26.45
2022-09-27T20:01:16.009Z,24.73
2022-09-27T20:03:44.380Z,25.05
2022-09-27T20:06:14.663Z,25.58
2022-09-27T20:08:43.072Z,22.10
2022-09-27T20:11:13.345Z,21.92
2022-09-27T20:13:41.192Z,27.48
2022-09-27T20:16:19.865Z,25.55
2022-09-27T20:18:50.715Z,20.05
2022-09-27T20:21:18.734Z,26.30
2022-09-27T20:23:49.597Z,22.17
2022-09-27T20:26:18.932Z,24.53
2022-09-27T20:28:48.214Z,26.52
2022-09-27T20:31:17.582Z,23.45
2022-09-27T20:33:46.827Z,24.13
2022-09-27T20:36:23.120Z,21.85
2022-09-27T20:38:52.652Z,20.38
2022-09-27T20:41:22.799Z,25.27
2022-09-27T20:43:55.566Z,21.75
2022-09-27T20:46:24.807Z,22.05
2022-09-27T20:48:57.062Z,24.73
2022-09-27T20:51:24.802Z,23.02
2022-09-27T20:53:52.002Z,26.42
2022-09-27T20:56:22.155Z,25.40
2022-09-27T20:58:51.490Z,26.25
2022-09-27T21:01:19.319Z,27.92
2022-09-27T21:03:46.499Z,25.27
2022-09-27T21:06:14.001Z,24.15
2022-09-27T21:08:41.157Z,25.48
2022-09-27T21:11:13.831Z,24.40
2022-09-27T21:13:42.511Z,26.70
2022-09-27T21:16:14.254Z,26.52
2022-09-27T21:18:41.690Z,25.08
2022-09-27T21:21:11.223Z,28.38
2022-09-27T21:23:44.098Z,31.77
2022-09-27T21:26:16.644Z,32.10
2022-09-27T21:28:48.576Z,30.17
2022-09-27T21:31:23.040Z,27.27
2022-09-27T21:33:54.080Z,29.17
2022-09-27T21:36:26.434Z,27.17
2022-09-27T21:38:53.872Z,25.17
2022-09-27T21:41:20.856Z,28.40
2022-09-27T21:43:49.003Z,26.83
2022-09-27T21:46:22.634Z,27.42
2022-09-27T21:48:52.464Z,27.90
2022-09-27T21:51:27.024Z,30.38
2022-09-27T21:54:00.651Z,33.42
2022-09-27T21:56:30.394Z,27.42
2022-09-27T21:58:58.055Z,30.52
2022-09-27T22:01:29.558Z,30.10
2022-09-27T22:06:36.595Z,29.38
2022-09-27T22:09:06.940Z,30.60
2022-09-27T22:11:37.790Z,28.92
2022-09-27T22:14:06.914Z,34.17
2022-09-27T22:16:33.880Z,27.90
2022-09-27T22:19:01.102Z,31.58
2022-09-27T22:21:33.114Z,32.70
2022-09-27T22:24:18.794Z,29.70
2022-09-27T22:26:50.803Z,34.75
2022-09-27T22:29:17.964Z,34.47
2022-09-27T22:31:44.965Z,35.25
2022-09-27T22:34:18.317Z,34.50
2022-09-27T22:36:45.371Z,31.25
2022-09-27T22:39:12.530Z,32.33
2022-09-27T22:41:39.646Z,34.28
2022-09-27T22:44:07.794Z,29.90
2022-09-27T22:46:35.144Z,30.85
2022-09-27T22:49:02.321Z,31.60
2022-09-27T22:51:29.389Z,32.92
2022-09-27T22:53:56.223Z,33.17
2022-09-27T22:56:23.637Z,30.42
2022-09-27T22:58:50.640Z,36.55
2022-09-27T23:01:20.249Z,29.38
2022-09-27T23:03:49.564Z,32.15
2022-09-27T23:06:18.878Z,32.63
2022-09-27T23:08:45.718Z,33.22
2022-09-27T23:11:20.620Z,30.27
2022-09-27T23:13:48.912Z,33.13
2022-09-27T23:16:19.351Z,27.35
2022-09-27T23:18:47.871Z,32.10
2022-09-27T23:21:16.125Z,32.55
2022-09-27T23:23:45.214Z,28.88
2022-09-27T23:26:14.987Z,29.30
2022-09-27T23:28:42.007Z,30.40
2022-09-27T23:31:12.011Z,29.13
2022-09-27T23:33:41.303Z,32.83
2022-09-27T23:36:12.190Z,31.63
2022-09-27T23:38:41.059Z,31.20
2022-09-27T23:41:08.462Z,36.90
2022-09-27T23:43:36.393Z,32.30
2022-09-27T23:46:05.985Z,41.72
2022-09-27T23:48:36.329Z,41.17
2022-09-27T23:51:05.762Z,38.83
2022-09-27T23:53:33.143Z,39.58
2022-09-27T23:56:02.093Z,41.67
2022-09-27T23:58:36.073Z,42.13
